Time;durP1;ratioP1;P1;durP2;ratioP2;P2;SDS_P1;SDS_P2;PMS_P1;PMS_P2;Temp;Humidity;BMP_temperature;BMP_pressure;BME280_temperature;BME280_humidity;BME280_pressure;Samples;Min_cycle;Max_cycle;Signal;HPM_P1;HPM_P2
2023/11/12 00:00:37;;;;;;;4.07;3.67;;;2.50;99.90;;;;;;5010686;28;20236;-65
2023/11/12 00:03:05;;;;;;;4.53;4.15;;;2.50;99.90;;;;;;5010673;28;20236;-65
2023/11/12 00:05:33;;;;;;;7.85;5.72;;;2.40;99.90;;;;;;5010767;28;20235;-65
2023/11/12 00:08:00;;;;;;;4.53;3.85;;;2.40;99.90;;;;;;5011038;28;20207;-64
2023/11/12 00:10:27;;;;;;;5.97;4.05;;;2.40;99.90;;;;;;5007736;28;20294;-63
2023/11/12 00:12:54;;;;;;;4.45;3.80;;;2.40;99.90;;;;;;5004834;28;20697;-65
2023/11/12 00:15:21;;;;;;;4.45;4.05;;;2.40;99.90;;;;;;5009615;28;20224;-64
2023/11/12 00:17:48;;;;;;;3.97;3.67;;;2.40;99.90;;;;;;5002104;28;20293;-65
2023/11/12 00:20:15;;;;;;;4.20;3.80;;;2.40;99.90;;;;;;5005898;28;20224;-65
2023/11/12 00:22:43;;;;;;;4.22;3.88;;;2.40;99.90;;;;;;5008463;28;20246;-64
2023/11/12 00:25:13;;;;;;;5.40;3.55;;;2.40;99.90;;;;;;5008053;28;20228;-64
2023/11/12 00:27:39;;;;;;;4.00;3.70;;;2.40;99.90;;;;;;5009148;28;20258;-63
2023/11/12 00:30:08;;;;;;;5.60;4.05;;;2.40;99.90;;;;;;5010690;28;20208;-64
2023/11/12 00:32:35;;;;;;;4.45;4.10;;;2.40;99.90;;;;;;5010062;28;20214;-64
2023/11/12 00:35:02;;;;;;;5.43;4.10;;;2.40;99.90;;;;;;5010395;28;20306;-65
2023/11/12 00:37:29;;;;;;;4.20;3.80;;;2.40;99.90;;;;;;5006584;28;20203;-64
2023/11/12 00:39:57;;;;;;;8.20;3.35;;;2.40;99.90;;;;;;5010202;28;20310;-64
2023/11/12 00:42:24;;;;;;;4.20;3.47;;;2.40;99.90;;;;;;5007305;28;20205;-65
2023/11/12 00:44:51;;;;;;;5.25;3.63;;;2.40;99.90;;;;;;5010390;28;20247;-64
2023/11/12 00:47:18;;;;;;;3.95;3.60;;;2.30;99.90;;;;;;5009798;28;20208;-64
2023/11/12 00:49:45;;;;;;;3.83;3.53;;;2.40;99.90;;;;;;5009740;28;20202;-65
2023/11/12 00:52:12;;;;;;;4.40;3.78;;;2.30;99.90;;;;;;5010199;28;20655;-64
2023/11/12 00:54:38;;;;;;;3.63;3.33;;;2.30;99.90;;;;;;5009312;28;20314;-64
2023/11/12 00:57:07;;;;;;;4.18;3.53;;;2.30;99.90;;;;;;5007627;28;20777;-64
2023/11/12 00:59:35;;;;;;;4.28;3.85;;;2.30;99.90;;;;;;5008964;28;20281;-63
2023/11/12 01:02:02;;;;;;;4.70;4.40;;;2.30;99.90;;;;;;5009506;28;20760;-64
2023/11/12 01:04:28;;;;;;;4.45;4.07;;;2.40;99.90;;;;;;5009814;28;20248;-64
2023/11/12 01:06:55;;;;;;;5.95;5.35;;;2.40;99.90;;;;;;5010183;28;20212;-65
2023/11/12 01:09:22;;;;;;;3.78;3.47;;;2.40;99.90;;;;;;5009598;28;20200;-64
2023/11/12 01:11:49;;;;;;;5.50;5.03;;;2.40;99.90;;;;;;5002468;28;20204;-65
2023/11/12 01:14:17;;;;;;;5.40;4.90;;;2.50;99.90;;;;;;5010101;28;20208;-65
2023/11/12 01:16:44;;;;;;;10.25;4.88;;;2.50;99.90;;;;;;5006432;28;20246;-64
2023/11/12 01:19:11;;;;;;;4.93;4.22;;;2.50;99.90;;;;;;5010241;28;20701;-64
2023/11/12 01:21:38;;;;;;;6.20;5.00;;;2.50;99.90;;;;;;5009797;28;20235;-64
2023/11/12 01:24:06;;;;;;;4.47;4.15;;;2.60;99.90;;;;;;5010477;28;20266;-64
2023/11/12 01:26:32;;;;;;;4.00;3.63;;;2.50;99.90;;;;;;5009781;28;20210;-64
2023/11/12 01:28:59;;;;;;;5.88;4.25;;;2.50;99.90;;;;;;5014488;28;20230;-65
2023/11/12 01:31:27;;;;;;;3.95;3.65;;;2.50;99.90;;;;;;5014539;28;20204;-64
2023/11/12 01:33:54;;;;;;;4.57;4.13;;;2.50;99.90;;;;;;5014464;28;20200;-63
2023/11/12 01:36:22;;;;;;;4.50;3.92;;;2.50;99.90;;;;;;5013819;28;20310;-64
2023/11/12 01:38:49;;;;;;;4.70;4.30;;;2.50;99.90;;;;;;5013755;28;20225;-65
2023/11/12 01:41:16;;;;;;;4.93;4.57;;;2.50;99.90;;;;;;5014668;28;20203;-64
2023/11/12 01:43:43;;;;;;;4.70;4.25;;;2.50;99.90;;;;;;5014467;28;20212;-65
2023/11/12 01:46:10;;;;;;;4.47;4.00;;;2.50;99.90;;;;;;5014221;28;20231;-64
2023/11/12 01:48:38;;;;;;;4.55;4.25;;;2.40;99.90;;;;;;5014289;28;20303;-64
2023/11/12 01:51:06;;;;;;;4.93;3.88;;;2.40;99.90;;;;;;5014555;28;20281;-64
2023/11/12 01:53:35;;;;;;;5.10;4.63;;;2.40;99.90;;;;;;5014459;28;20210;-64
2023/11/12 01:56:03;;;;;;;6.65;4.20;;;2.40;99.90;;;;;;5013741;28;20238;-64
2023/11/12 01:58:31;;;;;;;5.85;4.63;;;2.40;99.90;;;;;;5014069;28;20599;-65
2023/11/12 02:01:00;;;;;;;5.15;4.65;;;2.30;99.90;;;;;;5014029;28;20203;-64
2023/11/12 02:03:27;;;;;;;4.60;4.15;;;2.30;99.90;;;;;;5005725;28;20208;-64
2023/11/12 02:05:55;;;;;;;5.68;3.95;;;2.20;99.90;;;;;;5006135;28;20234;-65
2023/11/12 02:08:24;;;;;;;5.50;5.00;;;2.20;99.90;;;;;;5007217;28;20208;-64
2023/11/12 02:10:51;;;;;;;5.40;4.95;;;2.20;99.90;;;;;;5002923;28;20270;-65
2023/11/12 02:13:19;;;;;;;5.90;5.28;;;2.10;99.90;;;;;;5013854;28;20207;-65
2023/11/12 02:15:47;;;;;;;5.28;4.82;;;2.10;99.90;;;;;;5013368;28;20314;-64
2023/11/12 02:18:14;;;;;;;5.65;5.15;;;2.00;99.90;;;;;;5013923;28;20678;-64
2023/11/12 02:20:45;;;;;;;5.72;4.93;;;2.00;99.90;;;;;;5013916;28;20227;-65
2023/11/12 02:23:15;;;;;;;5.70;5.20;;;2.00;99.90;;;;;;5013899;28;20588;-64
2023/11/12 02:25:44;;;;;;;5.85;5.38;;;2.00;99.90;;;;;;5013451;28;20611;-64
2023/11/12 02:28:11;;;;;;;5.53;5.13;;;2.00;99.90;;;;;;5013671;28;20670;-64
2023/11/12 02:30:39;;;;;;;5.93;5.32;;;1.90;99.90;;;;;;5013430;28;20203;-65
2023/11/12 02:33:06;;;;;;;5.80;4.80;;;1.90;99.90;;;;;;5013676;28;20211;-65
2023/11/12 02:35:36;;;;;;;5.47;5.05;;;1.90;99.90;;;;;;5013244;28;20745;-64
2023/11/12 02:38:04;;;;;;;8.02;5.50;;;1.90;99.90;;;;;;5013541;28;20207;-64
2023/11/12 02:40:31;;;;;;;5.88;5.05;;;2.00;99.90;;;;;;5012562;28;20232;-64
2023/11/12 02:42:59;;;;;;;5.80;5.20;;;2.00;99.90;;;;;;5013352;28;20789;-64
2023/11/12 02:45:26;;;;;;;6.30;5.70;;;2.00;99.90;;;;;;5013389;28;20259;-64
2023/11/12 02:47:53;;;;;;;6.53;5.47;;;2.10;99.90;;;;;;5013138;28;20692;-64
2023/11/12 02:50:30;;;;;;;5.45;5.05;;;2.10;99.90;;;;;;5012539;28;20214;-64
2023/11/12 02:52:59;;;;;;;5.03;4.65;;;2.10;99.90;;;;;;5012812;28;20210;-64
2023/11/12 02:55:27;;;;;;;5.85;5.18;;;2.20;99.90;;;;;;5012915;28;20232;-64
2023/11/12 02:57:54;;;;;;;6.65;5.13;;;2.20;99.90;;;;;;5012909;28;20315;-64
2023/11/12 03:00:27;;;;;;;7.05;6.47;;;2.20;99.90;;;;;;5012849;28;20318;-64
2023/11/12 03:02:54;;;;;;;5.57;4.95;;;2.20;99.90;;;;;;5013215;28;20212;-64
2023/11/12 03:05:21;;;;;;;10.70;4.88;;;2.20;99.90;;;;;;5012748;28;20238;-64
2023/11/12 03:07:48;;;;;;;4.90;4.40;;;2.20;99.90;;;;;;5012640;28;20302;-64
2023/11/12 03:10:15;;;;;;;5.18;4.78;;;2.30;99.90;;;;;;5012548;28;20598;-64
2023/11/12 03:12:42;;;;;;;4.80;4.40;;;2.30;99.90;;;;;;5012759;28;20204;-64
2023/11/12 03:15:11;;;;;;;4.78;4.18;;;2.30;99.90;;;;;;5012513;28;20262;-64
2023/11/12 03:17:39;;;;;;;7.97;7.30;;;2.30;99.90;;;;;;5012727;28;20595;-64
2023/11/12 03:20:08;;;;;;;5.68;5.07;;;2.30;99.90;;;;;;5012711;28;20318;-64
2023/11/12 03:22:35;;;;;;;4.82;4.40;;;2.30;99.90;;;;;;5012604;28;20203;-64
2023/11/12 03:25:04;;;;;;;5.15;4.65;;;2.40;99.90;;;;;;5012762;28;20244;-64
2023/11/12 03:27:32;;;;;;;4.43;4.03;;;2.30;99.90;;;;;;5012418;28;20247;-64
2023/11/12 03:29:59;;;;;;;5.47;4.90;;;2.40;99.90;;;;;;5012735;28;20204;-64
2023/11/12 03:32:26;;;;;;;4.70;4.25;;;2.30;99.90;;;;;;5012616;28;20231;-64
2023/11/12 03:34:54;;;;;;;5.20;4.60;;;2.40;99.90;;;;;;5012370;28;20311;-64
2023/11/12 03:37:22;;;;;;;4.90;4.50;;;2.40;99.90;;;;;;5011946;28;20211;-64
2023/11/12 03:39:50;;;;;;;5.95;4.70;;;2.40;99.90;;;;;;5012173;28;20706;-64
2023/11/12 03:42:17;;;;;;;5.20;4.57;;;2.40;99.90;;;;;;5012405;28;20211;-64
2023/11/12 03:44:44;;;;;;;7.18;5.75;;;2.40;99.90;;;;;;5012180;28;20231;-64
2023/11/12 03:47:11;;;;;;;5.30;4.80;;;2.30;99.90;;;;;;5011946;28;20219;-64
2023/11/12 03:49:40;;;;;;;6.35;5.60;;;2.30;99.90;;;;;;5012034;28;20204;-64
2023/11/12 03:52:09;;;;;;;6.07;5.47;;;2.30;99.90;;;;;;5012240;28;20204;-64
2023/11/12 03:54:37;;;;;;;6.50;4.18;;;2.30;99.90;;;;;;5012044;28;20322;-64
2023/11/12 03:57:04;;;;;;;4.93;4.53;;;2.30;99.90;;;;;;5011935;28;20220;-64
2023/11/12 03:59:31;;;;;;;4.80;4.40;;;2.20;99.90;;;;;;5012005;28;20227;-64
2023/11/12 04:01:57;;;;;;;5.13;4.20;;;2.20;99.90;;;;;;5012028;28;20642;-64
2023/11/12 04:04:24;;;;;;;5.13;4.72;;;2.10;99.90;;;;;;5011577;28;20302;-65
2023/11/12 04:06:51;;;;;;;4.60;4.20;;;2.10;99.90;;;;;;5011806;28;20306;-64
2023/11/12 04:09:19;;;;;;;4.60;4.20;;;2.10;99.90;;;;;;5012011;28;20654;-64
2023/11/12 04:11:47;;;;;;;5.30;4.45;;;2.10;99.90;;;;;;5011799;28;20652;-64
2023/11/12 04:14:13;;;;;;;5.65;5.05;;;2.10;99.90;;;;;;5011757;28;20246;-63
2023/11/12 04:16:41;;;;;;;5.53;5.03;;;2.00;99.90;;;;;;5011433;28;20215;-64
2023/11/12 04:19:08;;;;;;;5.80;5.30;;;2.00;99.90;;;;;;5011893;28;20211;-64
2023/11/12 04:21:35;;;;;;;4.93;4.53;;;2.00;99.90;;;;;;5011355;28;20231;-64
2023/11/12 04:24:02;;;;;;;6.68;4.80;;;2.00;99.90;;;;;;5011702;28;20207;-63
2023/11/12 04:26:31;;;;;;;3.97;3.58;;;2.00;99.90;;;;;;5010004;28;20314;-64
2023/11/12 04:28:58;;;;;;;5.00;4.53;;;2.00;99.90;;;;;;5011333;28;20208;-64
2023/11/12 04:31:24;;;;;;;5.85;4.00;;;1.90;99.90;;;;;;5011204;28;20246;-64
2023/11/12 04:33:53;;;;;;;6.07;5.50;;;2.00;99.90;;;;;;5011512;28;20208;-65
2023/11/12 04:36:20;;;;;;;5.20;4.70;;;1.90;99.90;;;;;;5010846;28;20793;-64
2023/11/12 04:38:47;;;;;;;5.03;4.43;;;1.90;99.90;;;;;;5011204;28;20208;-65
2023/11/12 04:41:14;;;;;;;6.32;5.72;;;1.90;99.90;;;;;;5011350;28;20227;-64
2023/11/12 04:43:43;;;;;;;6.68;5.60;;;1.90;99.90;;;;;;5011359;28;20255;-65
2023/11/12 04:46:11;;;;;;;7.40;4.93;;;1.90;99.90;;;;;;5010880;28;20238;-65
2023/11/12 04:48:38;;;;;;;6.32;5.10;;;1.90;99.90;;;;;;5011181;28;20342;-65
2023/11/12 04:51:08;;;;;;;4.43;4.03;;;1.90;99.90;;;;;;5011170;28;20277;-65
2023/11/12 04:53:35;;;;;;;5.05;4.55;;;1.90;99.90;;;;;;5010941;28;20621;-65
2023/11/12 04:56:07;;;;;;;4.78;4.32;;;1.90;99.90;;;;;;5010894;28;20227;-66
2023/11/12 04:58:34;;;;;;;6.70;5.90;;;2.00;99.90;;;;;;5011194;28;20710;-65
2023/11/12 05:01:03;;;;;;;5.22;4.30;;;2.00;99.90;;;;;;5011150;28;20579;-65
2023/11/12 05:03:31;;;;;;;5.45;4.50;;;2.00;99.90;;;;;;5017067;28;20211;-65
2023/11/12 05:05:59;;;;;;;5.13;4.72;;;2.00;99.90;;;;;;5016998;28;20262;-64
2023/11/12 05:08:25;;;;;;;8.23;7.43;;;2.00;99.90;;;;;;5017769;28;20212;-65
2023/11/12 05:10:52;;;;;;;5.90;5.40;;;2.00;99.90;;;;;;5017606;28;20214;-65
2023/11/12 05:13:19;;;;;;;5.35;4.75;;;2.00;99.90;;;;;;5017725;28;20298;-65
2023/11/12 05:15:46;;;;;;;5.50;5.00;;;2.00;99.90;;;;;;5017209;28;20946;-65
2023/11/12 05:18:14;;;;;;;4.93;4.50;;;2.00;99.90;;;;;;5017518;28;20646;-64
2023/11/12 05:20:41;;;;;;;5.45;4.78;;;2.00;99.90;;;;;;5017378;28;20734;-65
2023/11/12 05:23:08;;;;;;;5.35;4.85;;;2.00;99.90;;;;;;5017706;28;20202;-65
2023/11/12 05:25:35;;;;;;;6.07;5.30;;;2.00;99.90;;;;;;5017167;28;20232;-64
2023/11/12 05:28:03;;;;;;;5.32;4.70;;;2.00;99.90;;;;;;5017560;28;20231;-65
2023/11/12 05:30:30;;;;;;;7.00;6.03;;;2.00;99.90;;;;;;5017531;28;20682;-65
2023/11/12 05:32:57;;;;;;;6.10;5.50;;;2.00;99.90;;;;;;5017256;28;20257;-65
2023/11/12 05:35:26;;;;;;;6.43;5.45;;;2.00;99.90;;;;;;5017329;28;20641;-65
2023/11/12 05:37:54;;;;;;;5.82;5.30;;;2.00;99.90;;;;;;5017342;28;20261;-64
2023/11/12 05:40:21;;;;;;;9.50;5.13;;;2.00;99.90;;;;;;5017447;28;20254;-65
2023/11/12 05:42:48;;;;;;;5.57;5.07;;;1.90;99.90;;;;;;5017253;28;20689;-65
2023/11/12 05:45:14;;;;;;;5.10;4.40;;;1.90;99.90;;;;;;5017224;28;20231;-65
2023/11/12 05:47:41;;;;;;;5.45;4.95;;;1.90;99.90;;;;;;5017010;28;20294;-65
2023/11/12 05:50:09;;;;;;;5.60;5.03;;;1.80;99.90;;;;;;5017437;28;20214;-65
2023/11/12 05:52:37;;;;;;;5.72;5.22;;;1.80;99.90;;;;;;5017338;28;20214;-65
2023/11/12 05:55:05;;;;;;;6.72;5.53;;;1.80;99.90;;;;;;5016954;28;20239;-65
2023/11/12 05:57:32;;;;;;;5.78;5.00;;;1.80;99.90;;;;;;5016974;28;20729;-64
2023/11/12 05:59:58;;;;;;;5.97;5.47;;;1.80;99.90;;;;;;5017099;28;20211;-65
2023/11/12 06:02:25;;;;;;;5.97;5.30;;;1.80;99.90;;;;;;5017134;28;20753;-64
2023/11/12 06:04:52;;;;;;;6.15;4.72;;;1.80;99.90;;;;;;5017014;28;20281;-65
2023/11/12 06:07:19;;;;;;;6.63;5.95;;;1.80;99.90;;;;;;5016997;28;20288;-64
2023/11/12 06:09:47;;;;;;;6.70;5.63;;;1.80;99.90;;;;;;5017062;28;20214;-64
2023/11/12 06:12:14;;;;;;;5.82;5.32;;;1.80;99.90;;;;;;5017108;28;20207;-65
2023/11/12 06:14:41;;;;;;;5.38;4.85;;;1.80;99.90;;;;;;5014337;28;20668;-64
2023/11/12 06:17:08;;;;;;;6.05;5.43;;;1.80;99.90;;;;;;5013882;28;20203;-64
2023/11/12 06:19:34;;;;;;;6.20;5.60;;;1.80;99.90;;;;;;5014002;28;20211;-65
2023/11/12 06:22:02;;;;;;;6.97;6.28;;;1.80;99.90;;;;;;5013961;28;20223;-64
2023/11/12 06:24:29;;;;;;;6.45;5.85;;;1.80;99.90;;;;;;5013676;28;21046;-64
2023/11/12 06:26:57;;;;;;;6.90;6.22;;;1.80;99.90;;;;;;5013659;28;20294;-65
2023/11/12 06:29:25;;;;;;;7.82;7.13;;;1.80;99.90;;;;;;5013583;28;20302;-65
2023/11/12 06:31:52;;;;;;;6.30;5.72;;;1.90;99.90;;;;;;5013640;28;20200;-65
2023/11/12 06:34:19;;;;;;;8.30;6.18;;;1.90;99.90;;;;;;5012886;28;20203;-65
2023/11/12 06:36:46;;;;;;;7.72;6.55;;;1.90;99.90;;;;;;5013237;28;20211;-64
2023/11/12 06:39:13;;;;;;;6.90;6.18;;;1.90;99.90;;;;;;5013570;28;20215;-64
2023/11/12 06:41:41;;;;;;;6.60;5.20;;;1.90;99.90;;;;;;5013317;28;20234;-65
2023/11/12 06:44:09;;;;;;;6.60;6.00;;;1.90;99.90;;;;;;5013709;28;20219;-65
2023/11/12 06:46:36;;;;;;;6.78;5.80;;;2.00;99.90;;;;;;5013284;28;20214;-64
2023/11/12 06:49:03;;;;;;;5.63;5.15;;;2.00;99.90;;;;;;5013319;28;20215;-64
2023/11/12 06:51:30;;;;;;;7.53;5.65;;;2.00;99.90;;;;;;5013349;28;20234;-65
2023/11/12 06:53:57;;;;;;;12.70;6.18;;;2.10;99.90;;;;;;5013283;28;20211;-64
2023/11/12 06:56:24;;;;;;;7.35;6.63;;;2.00;99.90;;;;;;5012714;28;20224;-64
2023/11/12 06:58:51;;;;;;;5.65;5.10;;;2.00;99.90;;;;;;5013359;28;20625;-65
2023/11/12 07:01:19;;;;;;;6.45;5.63;;;2.10;99.90;;;;;;5013277;28;20228;-65
2023/11/12 07:03:47;;;;;;;7.47;6.53;;;2.10;99.90;;;;;;5013221;28;20208;-65
2023/11/12 07:06:14;;;;;;;6.43;5.82;;;2.10;99.90;;;;;;5012548;28;20261;-64
2023/11/12 07:08:41;;;;;;;7.75;7.10;;;2.10;99.90;;;;;;5012924;28;20210;-64
2023/11/12 07:11:09;;;;;;;8.18;7.05;;;2.10;99.90;;;;;;5013160;28;20211;-65
2023/11/12 07:13:36;;;;;;;8.10;7.40;;;2.10;99.90;;;;;;5013067;28;20211;-65
2023/11/12 07:16:04;;;;;;;6.40;5.80;;;2.20;99.90;;;;;;5012623;28;20235;-65
2023/11/12 07:18:32;;;;;;;7.80;6.32;;;2.10;99.90;;;;;;5012847;28;20285;-64
2023/11/12 07:20:59;;;;;;;7.45;6.75;;;2.10;99.90;;;;;;5012720;28;20228;-65
2023/11/12 07:23:26;;;;;;;7.95;7.18;;;2.10;99.90;;;;;;5012492;28;20215;-65
2023/11/12 07:25:54;;;;;;;7.25;6.65;;;2.10;99.90;;;;;;5011801;28;20227;-64
2023/11/12 07:28:21;;;;;;;7.90;7.10;;;2.10;99.90;;;;;;5009443;28;20210;-65
2023/11/12 07:30:48;;;;;;;7.28;6.57;;;2.10;99.90;;;;;;5012654;28;20206;-65
2023/11/12 07:33:14;;;;;;;8.73;7.93;;;2.10;99.90;;;;;;5012525;28;20298;-65
2023/11/12 07:35:43;;;;;;;9.68;7.63;;;2.10;99.90;;;;;;5012024;28;20232;-65
2023/11/12 07:38:09;;;;;;;8.20;7.50;;;2.10;99.90;;;;;;5012384;28;20208;-65
2023/11/12 07:40:36;;;;;;;9.30;7.85;;;2.20;99.90;;;;;;5012248;28;20238;-65
2023/11/12 07:43:05;;;;;;;7.90;7.22;;;2.20;99.90;;;;;;5012449;28;20250;-64
2023/11/12 07:45:31;;;;;;;7.95;6.60;;;2.20;99.90;;;;;;5012169;28;20224;-65
2023/11/12 07:47:58;;;;;;;13.40;8.68;;;2.20;99.90;;;;;;5011867;28;20203;-64
2023/11/12 07:50:25;;;;;;;9.82;8.52;;;2.20;99.90;;;;;;5012133;28;20248;-65
2023/11/12 07:52:53;;;;;;;7.38;6.78;;;2.30;99.90;;;;;;5012013;28;20746;-65
2023/11/12 07:55:20;;;;;;;8.80;7.65;;;2.30;99.90;;;;;;5012211;28;20234;-65
2023/11/12 07:57:47;;;;;;;7.15;6.45;;;2.30;99.90;;;;;;5011911;28;20854;-64
2023/11/12 08:00:15;;;;;;;10.23;9.13;;;2.40;99.90;;;;;;5012092;28;20208;-65
2023/11/12 08:02:41;;;;;;;11.35;8.63;;;2.50;99.90;;;;;;5010655;28;20250;-64
2023/11/12 08:05:10;;;;;;;10.25;8.35;;;2.60;99.90;;;;;;5011478;28;20322;-65
2023/11/12 08:07:37;;;;;;;9.18;8.25;;;2.60;99.90;;;;;;5010269;28;20218;-64
2023/11/12 08:10:08;;;;;;;10.90;8.57;;;2.70;99.90;;;;;;5011815;28;20678;-64
2023/11/12 08:12:35;;;;;;;9.00;8.10;;;2.80;99.90;;;;;;5011731;28;20200;-64
2023/11/12 08:15:02;;;;;;;9.00;8.10;;;2.80;99.90;;;;;;5011595;28;20234;-64
2023/11/12 08:17:30;;;;;;;9.43;8.30;;;3.00;99.90;;;;;;5047581;22;20335;-63
2023/11/12 08:19:57;;;;;;;9.52;8.27;;;3.10;99.90;;;;;;5031862;28;20700;-61
2023/11/12 08:22:23;;;;;;;10.00;9.00;;;3.20;99.90;;;;;;5031451;28;20233;-61
2023/11/12 08:24:51;;;;;;;12.02;10.80;;;3.30;99.90;;;;;;5031765;28;20222;-61
2023/11/12 08:27:19;;;;;;;13.80;11.45;;;3.40;99.90;;;;;;5044191;28;20256;-61
2023/11/12 08:29:46;;;;;;;13.25;11.48;;;3.50;99.90;;;;;;5051660;28;20596;-61
2023/11/12 08:32:13;;;;;;;13.82;11.75;;;3.60;99.90;;;;;;5051641;28;20206;-62
2023/11/12 08:34:40;;;;;;;15.38;11.20;;;3.70;99.90;;;;;;5051507;28;20309;-61
2023/11/12 08:37:07;;;;;;;14.63;12.63;;;3.80;99.90;;;;;;5050420;28;20234;-62
2023/11/12 08:39:34;;;;;;;16.13;12.35;;;3.90;99.90;;;;;;5051939;28;20217;-62
2023/11/12 08:42:01;;;;;;;15.45;12.93;;;4.00;99.90;;;;;;5051873;28;20234;-62
2023/11/12 08:44:29;;;;;;;14.45;12.45;;;4.10;99.90;;;;;;5051846;28;20202;-62
2023/11/12 08:46:56;;;;;;;14.32;12.73;;;4.20;99.90;;;;;;5051361;28;20226;-62
2023/11/12 08:49:23;;;;;;;13.93;12.10;;;4.30;99.90;;;;;;5050693;28;20284;-62
2023/11/12 08:51:50;;;;;;;16.90;13.25;;;4.40;99.90;;;;;;5051553;28;20332;-62
2023/11/12 08:54:16;;;;;;;15.35;12.20;;;4.50;99.90;;;;;;5051285;28;20213;-62
2023/11/12 08:56:43;;;;;;;13.45;12.05;;;4.60;99.90;;;;;;5051316;28;20601;-62
2023/11/12 08:59:11;;;;;;;14.45;11.23;;;4.70;99.90;;;;;;5051407;28;20240;-62
2023/11/12 09:01:39;;;;;;;14.43;12.80;;;4.80;99.90;;;;;;5051414;28;20222;-62
2023/11/12 09:04:07;;;;;;;13.68;11.35;;;4.90;99.90;;;;;;5051465;28;20681;-62
2023/11/12 09:06:34;;;;;;;14.43;10.90;;;5.00;99.90;;;;;;5051419;28;20244;-62
2023/11/12 09:09:04;;;;;;;11.65;10.45;;;5.10;99.90;;;;;;5051542;28;20207;-62
2023/11/12 09:11:31;;;;;;;11.93;10.70;;;5.10;99.90;;;;;;5050949;28;20685;-62
2023/11/12 09:14:00;;;;;;;15.20;10.63;;;5.30;99.90;;;;;;5051236;28;20210;-62
2023/11/12 09:16:27;;;;;;;15.80;13.70;;;5.40;99.90;;;;;;5050659;28;20311;-62
2023/11/12 09:18:55;;;;;;;13.77;12.35;;;5.50;99.90;;;;;;5051727;28;20213;-62
2023/11/12 09:21:23;;;;;;;13.55;12.15;;;5.60;99.90;;;;;;5051174;28;20232;-62
2023/11/12 09:23:50;;;;;;;14.02;12.07;;;5.70;99.90;;;;;;5051371;28;20210;-62
2023/11/12 09:26:21;;;;;;;12.70;11.40;;;5.80;99.90;;;;;;5050980;28;20233;-62
2023/11/12 09:28:48;;;;;;;12.25;9.88;;;5.90;99.90;;;;;;5050974;28;20206;-62
2023/11/12 09:31:15;;;;;;;13.07;10.73;;;5.90;99.90;;;;;;5051281;28;20293;-62
2023/11/12 09:33:42;;;;;;;11.60;9.40;;;6.00;99.90;;;;;;5051513;28;20210;-62
2023/11/12 09:36:10;;;;;;;11.98;10.23;;;6.10;99.90;;;;;;5050879;28;20230;-62
2023/11/12 09:38:38;;;;;;;13.43;12.13;;;6.20;99.90;;;;;;5051228;28;20301;-63
2023/11/12 09:41:06;;;;;;;17.23;13.85;;;6.20;99.90;;;;;;5051028;28;20750;-63
2023/11/12 09:43:33;;;;;;;14.55;12.95;;;6.30;99.90;;;;;;5051159;28;20594;-63
2023/11/12 09:46:00;;;;;;;15.45;12.15;;;6.40;99.90;;;;;;5049397;28;20217;-63
2023/11/12 09:48:32;;;;;;;13.55;11.80;;;6.50;99.90;;;;;;5052053;28;20671;-63
2023/11/12 09:50:59;;;;;;;13.00;11.25;;;6.60;99.90;;;;;;5035511;28;20215;-63
2023/11/12 09:53:28;;;;;;;14.15;11.60;;;6.70;99.90;;;;;;5054056;28;20214;-64
2023/11/12 09:55:55;;;;;;;17.63;10.45;;;6.70;99.90;;;;;;5052837;28;20207;-63
2023/11/12 09:58:22;;;;;;;10.27;9.27;;;6.80;99.90;;;;;;5051879;28;20210;-63
2023/11/12 10:00:50;;;;;;;10.57;9.50;;;6.90;99.90;;;;;;5034108;28;20207;-63
2023/11/12 10:03:17;;;;;;;12.13;10.90;;;6.90;99.90;;;;;;5035947;28;20223;-63
2023/11/12 10:05:44;;;;;;;10.60;9.50;;;7.00;99.90;;;;;;5033064;28;20211;-63
2023/11/12 10:08:12;;;;;;;10.60;9.50;;;7.20;99.90;;;;;;5033178;28;20334;-64
2023/11/12 10:10:41;;;;;;;11.13;10.23;;;7.20;99.90;;;;;;5033006;28;20269;-63
2023/11/12 10:13:09;;;;;;;12.85;10.68;;;7.30;99.90;;;;;;5033845;28;20265;-63
2023/11/12 10:15:36;;;;;;;11.30;10.20;;;7.50;99.90;;;;;;5033306;28;20207;-63
2023/11/12 10:18:03;;;;;;;9.98;9.07;;;7.50;99.90;;;;;;5032997;28;20649;-63
2023/11/12 10:20:32;;;;;;;10.65;9.60;;;7.50;99.90;;;;;;5033449;28;20211;-64
2023/11/12 10:22:58;;;;;;;11.98;10.85;;;7.60;99.90;;;;;;5033129;28;20607;-64
2023/11/12 10:25:41;;;;;;;9.88;8.93;;;7.60;99.90;;;;;;5032987;28;20211;-64
2023/11/12 10:28:09;;;;;;;11.90;10.82;;;7.60;99.90;;;;;;5033058;28;20333;-63
2023/11/12 10:30:37;;;;;;;13.20;9.52;;;7.60;99.90;;;;;;5033219;28;20302;-63
2023/11/12 10:33:18;;;;;;;13.18;8.90;;;7.60;99.90;;;;;;5032581;28;20208;-64
2023/11/12 10:35:45;;;;;;;9.98;8.55;;;7.80;99.90;;;;;;5032176;28;20748;-63
2023/11/12 10:38:15;;;;;;;8.13;7.32;;;7.80;99.90;;;;;;5034382;28;20207;-63
2023/11/12 10:40:58;;;;;;;10.63;9.02;;;7.80;99.90;;;;;;5043294;28;20214;-63
2023/11/12 10:43:25;;;;;;;10.23;9.32;;;7.90;99.90;;;;;;5035408;28;20313;-63
2023/11/12 10:45:57;;;;;;;9.23;7.95;;;7.90;99.90;;;;;;5043200;28;20198;-64
2023/11/12 10:48:30;;;;;;;9.30;8.38;;;7.90;99.90;;;;;;5043029;28;20301;-64
2023/11/12 10:50:59;;;;;;;9.25;7.05;;;7.90;99.90;;;;;;5052696;28;20205;-63
2023/11/12 10:53:27;;;;;;;7.50;6.80;;;7.90;99.90;;;;;;5047654;28;20333;-63
2023/11/12 10:55:57;;;;;;;8.15;7.28;;;7.90;99.90;;;;;;5049260;28;20199;-63
2023/11/12 10:58:25;;;;;;;7.50;6.40;;;7.90;99.90;;;;;;5047719;28;20293;-63
2023/11/12 11:00:55;;;;;;;7.60;6.90;;;7.90;99.90;;;;;;5051516;28;20215;-63
2023/11/12 11:03:23;;;;;;;10.05;8.18;;;7.90;99.90;;;;;;5046298;28;20225;-63
2023/11/12 11:05:51;;;;;;;8.15;7.35;;;8.00;99.90;;;;;;5044963;28;20210;-63
2023/11/12 11:08:18;;;;;;;9.52;7.55;;;8.00;99.90;;;;;;5047214;28;20578;-63
2023/11/12 11:10:45;;;;;;;9.80;8.43;;;8.10;99.90;;;;;;5052396;28;20206;-63
2023/11/12 11:13:13;;;;;;;9.05;8.15;;;8.10;99.90;;;;;;5047120;28;20249;-63
2023/11/12 11:15:45;;;;;;;8.95;8.20;;;8.10;99.90;;;;;;5038230;28;20260;-63
2023/11/12 11:18:50;;;;;;;8.80;7.93;;;8.20;99.90;;;;;;5052453;28;20292;-63
2023/11/12 11:21:18;;;;;;;7.68;7.07;;;8.20;99.90;;;;;;5048868;28;20669;-63
2023/11/12 11:23:49;;;;;;;7.70;6.90;;;8.30;99.90;;;;;;5044631;28;20771;-63
2023/11/12 11:26:30;;;;;;;7.43;6.72;;;8.40;99.90;;;;;;5051374;28;20653;-63
2023/11/12 11:29:18;;;;;;;8.97;8.10;;;8.40;99.90;;;;;;5045001;28;20209;-63
2023/11/12 11:32:17;;;;;;;6.78;6.28;;;8.60;99.90;;;;;;5051883;28;20457;-63
2023/11/12 11:34:45;;;;;;;7.63;6.93;;;8.70;99.90;;;;;;5040479;28;20651;-63
2023/11/12 11:37:13;;;;;;;7.82;7.22;;;8.80;99.90;;;;;;5051263;28;20309;-64
2023/11/12 11:39:40;;;;;;;7.03;6.43;;;8.90;99.90;;;;;;5042152;28;20202;-63
2023/11/12 11:42:20;;;;;;;8.37;7.60;;;8.90;99.90;;;;;;5043244;28;20910;-63
2023/11/12 11:44:50;;;;;;;10.00;6.30;;;9.00;99.90;;;;;;5043307;28;20485;-63
2023/11/12 11:47:19;;;;;;;7.97;5.82;;;9.10;99.90;;;;;;5049568;28;21176;-63
2023/11/12 11:49:47;;;;;;;6.43;6.00;;;9.10;99.90;;;;;;5049141;28;20298;-63
2023/11/12 11:52:22;;;;;;;6.63;6.10;;;9.20;99.90;;;;;;5046696;28;20863;-63
2023/11/12 11:55:02;;;;;;;6.30;5.80;;;9.30;99.90;;;;;;5035416;28;20199;-63
2023/11/12 11:57:29;;;;;;;7.13;5.47;;;9.50;99.90;;;;;;5041426;28;20468;-63
2023/11/12 11:59:59;;;;;;;5.90;5.40;;;9.60;99.90;;;;;;5041793;28;21225;-63
2023/11/12 12:02:26;;;;;;;6.73;6.13;;;9.80;99.90;;;;;;5044607;28;20489;-64
2023/11/12 12:04:54;;;;;;;7.70;6.80;;;9.80;99.90;;;;;;5047461;28;20453;-64
2023/11/12 12:07:23;;;;;;;6.50;5.97;;;10.00;99.90;;;;;;5043880;28;21287;-64
2023/11/12 12:09:50;;;;;;;6.47;5.80;;;10.00;99.90;;;;;;5043144;28;20545;-64
2023/11/12 12:12:17;;;;;;;8.23;7.53;;;10.10;99.90;;;;;;5047643;28;20824;-64
2023/11/12 12:14:44;;;;;;;6.87;6.27;;;10.30;99.90;;;;;;5046457;28;20467;-63
2023/11/12 12:17:14;;;;;;;6.40;5.80;;;10.50;99.90;;;;;;5046385;28;20496;-64
2023/11/12 12:19:41;;;;;;;5.63;5.10;;;10.80;99.90;;;;;;5044253;28;20453;-64
2023/11/12 12:22:08;;;;;;;4.80;4.30;;;11.20;99.90;;;;;;5042208;28;20580;-63
2023/11/12 12:24:35;;;;;;;6.17;5.67;;;11.60;99.90;;;;;;5047987;28;20833;-63
2023/11/12 12:27:06;;;;;;;5.80;5.30;;;12.00;99.90;;;;;;5046332;28;20473;-64
2023/11/12 12:29:34;;;;;;;5.47;5.07;;;12.50;99.90;;;;;;5040799;28;20836;-63
2023/11/12 12:32:14;;;;;;;4.93;4.50;;;12.80;99.90;;;;;;5039051;28;20512;-63
2023/11/12 12:34:42;;;;;;;4.67;4.20;;;12.90;99.90;;;;;;5044841;28;20441;-64
2023/11/12 12:37:11;;;;;;;6.43;5.93;;;13.10;99.90;;;;;;5042138;28;20457;-63
2023/11/12 12:39:48;;;;;;;5.20;3.77;;;13.20;99.90;;;;;;5048437;28;20453;-64
2023/11/12 12:42:15;;;;;;;3.63;3.43;;;13.30;99.90;;;;;;5044269;28;20502;-63
2023/11/12 12:44:47;;;;;;;4.00;3.70;;;13.30;99.90;;;;;;5047469;28;20476;-64
2023/11/12 12:47:39;;;;;;;3.97;3.67;;;13.30;99.90;;;;;;5041903;28;20477;-63
2023/11/12 12:50:16;;;;;;;3.67;3.37;;;13.00;99.90;;;;;;5047892;28;20465;-63
2023/11/12 12:52:45;;;;;;;3.37;3.17;;;12.70;99.90;;;;;;5040029;28;20429;-64
2023/11/12 12:55:15;;;;;;;3.83;3.63;;;12.50;99.90;;;;;;5039085;28;20441;-63
2023/11/12 12:57:42;;;;;;;6.30;4.00;;;12.30;99.90;;;;;;5042698;28;21002;-63